Terminal Aerodrome Forecast
Issued by NWS Wilmington, OH

Current Version | Previous Version | Graphics & Text | Print | Product List | Glossary On
Versions: 1 2 3 4 5 6 7 8 9 10 11 12 13 14 15 16 17 18 19 20 21 22 23 24 25 26 27 28 29 30 31
000
FTUS41 KILN 020500
TAFCVG
TAF
KCVG 020520Z 0206/0312 VRB03KT 6SM BR SCT040 OVC060
     FM021200 12005KT 5SM -SHRA BR SCT025 OVC040
     FM021500 13005KT 5SM -SHRA BR OVC025
     FM022100 13005KT P6SM VCSH OVC025
     FM030000 10005KT P6SM VCSH OVC025
     FM030600 06008KT 4SM BR OVC015=

USA.gov is the U.S. government's official web portal to all federal, state and local government web resources and services.